Time,TemperatureF,DewpointF,PressureIn,WindDirection,WindDirectionDegrees,WindSpeedMPH,WindSpeedGustMPH,Humidity,HourlyPrecipIn,Conditions,Clouds,dailyrainin,SoftwareType,DateUTC
2014-01-23 00:00:00,52.0,45.0,29.71,WNW,300,28.0,-999.0,76,-99.99,,,-99.99,,2014-01-23 06:00:00,
2014-01-23 00:52:00,52.0,45.0,29.71,WNW,300,28.0,-999.0,76,-99.99,,,-99.99,,2014-01-23 06:52:00,
2014-01-23 01:00:00,52.0,45.0,29.72,WNW,300,28.0,-999.0,76,-99.99,,,-99.99,,2014-01-23 07:00:00,
2014-01-23 01:42:00,52.0,45.0,29.72,WNW,300,28.0,-999.0,76,-99.99,,,-99.99,,2014-01-23 07:42:00,
2014-01-23 01:52:00,52.0,45.0,29.72,WNW,300,28.0,-999.0,76,-99.99,,,-99.99,,2014-01-23 07:52:00,
2014-01-23 02:00:00,54.0,46.0,29.75,West,260,28.0,-999.0,74,-99.99,,,-99.99,,2014-01-23 08:00:00,
2014-01-23 02:42:00,54.0,46.0,29.75,West,260,28.0,-999.0,74,-99.99,,,-99.99,,2014-01-23 08:42:00,
2014-01-23 02:52:00,54.0,46.0,29.75,West,260,28.0,-999.0,74,-99.99,,,-99.99,,2014-01-23 08:52:00,
2014-01-23 03:00:00,55.0,45.0,29.78,West,260,36.0,-999.0,66,-99.99,,,-99.99,,2014-01-23 09:00:00,
2014-01-23 03:43:00,55.0,45.0,29.78,West,260,36.0,-999.0,66,-99.99,,,-99.99,,2014-01-23 09:43:00,
2014-01-23 03:52:00,55.0,45.0,29.78,West,260,36.0,-999.0,66,-99.99,,,-99.99,,2014-01-23 09:52:00,
2014-01-23 04:00:00,55.0,48.0,29.78,West,270,33.0,-999.0,76,-99.99,,,-99.99,,2014-01-23 10:00:00,
2014-01-23 04:42:00,55.0,48.0,29.78,West,270,33.0,-999.0,76,-99.99,,,-99.99,,2014-01-23 10:42:00,
2014-01-23 04:52:00,55.0,48.0,29.78,West,270,33.0,-999.0,76,-99.99,,,-99.99,,2014-01-23 10:52:00,
2014-01-23 05:00:00,56.0,48.0,29.81,West,280,26.0,-999.0,74,-99.99,,,-99.99,,2014-01-23 11:00:00,
2014-01-23 05:42:00,56.0,48.0,29.81,West,280,26.0,-999.0,74,-99.99,,,-99.99,,2014-01-23 11:42:00,
2014-01-23 05:52:00,56.0,48.0,29.81,West,280,26.0,-999.0,74,-99.99,,,-99.99,,2014-01-23 11:52:00,
2014-01-23 06:00:00,55.0,48.0,29.81,WNW,290,23.0,-999.0,76,-99.99,,,-99.99,,2014-01-23 12:00:00,
2014-01-23 06:42:00,55.0,48.0,29.81,WNW,290,23.0,-999.0,76,-99.99,,,-99.99,,2014-01-23 12:42:00,
2014-01-23 06:52:00,55.0,48.0,29.81,WNW,290,23.0,-999.0,76,-99.99,,,-99.99,,2014-01-23 12:52:00,
2014-01-23 07:00:00,55.0,48.0,29.83,NW,320,14.0,-999.0,76,-99.99,,,-99.99,,2014-01-23 13:00:00,
2014-01-23 07:42:00,55.0,48.0,29.83,NW,320,14.0,-999.0,76,-99.99,,,-99.99,,2014-01-23 13:42:00,
2014-01-23 07:52:00,55.0,48.0,29.83,NW,320,14.0,-999.0,76,-99.99,,,-99.99,,2014-01-23 13:52:00,
2014-01-23 08:00:00,55.0,48.0,29.83,West,270,23.0,-999.0,76,-99.99,,,-99.99,,2014-01-23 14:00:00,
2014-01-23 08:42:00,55.0,48.0,29.83,West,270,23.0,-999.0,76,-99.99,,,-99.99,,2014-01-23 14:42:00,
2014-01-23 08:52:00,55.0,48.0,29.83,West,270,23.0,-999.0,76,-99.99,,,-99.99,,2014-01-23 14:52:00,
2014-01-23 09:00:00,55.0,48.0,29.85,WSW,250,23.0,-999.0,76,-99.99,,,-99.99,,2014-01-23 15:00:00,
2014-01-23 09:22:00,55.0,48.0,29.85,WSW,250,23.0,-999.0,76,-99.99,,,-99.99,,2014-01-23 15:22:00,
2014-01-23 09:33:00,55.0,48.0,29.85,WSW,250,23.0,-999.0,76,-99.99,,,-99.99,,2014-01-23 15:33:00,
2014-01-23 09:43:00,55.0,48.0,29.85,WSW,250,23.0,-999.0,76,-99.99,,,-99.99,,2014-01-23 15:43:00,
2014-01-23 09:53:00,55.0,48.0,29.85,WSW,250,23.0,-999.0,76,-99.99,,,-99.99,,2014-01-23 15:53:00,
2014-01-23 10:00:00,55.0,48.0,29.83,West,260,22.0,-999.0,76,-99.99,,,-99.99,,2014-01-23 16:00:00,
2014-01-23 10:52:00,55.0,48.0,29.83,West,260,22.0,-999.0,76,-99.99,,,-99.99,,2014-01-23 16:52:00,
2014-01-23 11:00:00,55.0,48.0,29.78,West,260,22.0,-999.0,76,-99.99,,,-99.99,,2014-01-23 17:00:00,
2014-01-23 11:52:00,55.0,48.0,29.78,West,260,22.0,-999.0,76,-99.99,,,-99.99,,2014-01-23 17:52:00,
2014-01-23 12:52:00,55.0,48.0,29.81,West,260,22.0,-999.0,76,-99.99,,,-99.99,,2014-01-23 18:52:00,
2014-01-23 14:00:00,59.0,50.0,29.85,WSW,250,16.0,-999.0,72,-99.99,,,-99.99,,2014-01-23 20:00:00,
2014-01-23 14:42:00,59.0,50.0,29.85,WSW,250,16.0,-999.0,72,-99.99,,,-99.99,,2014-01-23 20:42:00,
2014-01-23 14:52:00,59.0,50.0,29.85,WSW,250,16.0,-999.0,72,-99.99,,,-99.99,,2014-01-23 20:52:00,
2014-01-23 15:00:00,58.0,52.0,29.90,West,280,26.0,-999.0,79,-99.99,,,-99.99,,2014-01-23 21:00:00,
2014-01-23 15:43:00,58.0,52.0,29.90,West,280,26.0,-999.0,79,-99.99,,,-99.99,,2014-01-23 21:43:00,
2014-01-23 15:53:00,58.0,52.0,29.90,West,280,26.0,-999.0,79,-99.99,,,-99.99,,2014-01-23 21:53:00,
2014-01-23 16:00:00,58.0,52.0,29.90,WNW,300,17.0,-999.0,79,-99.99,,,-99.99,,2014-01-23 22:00:00,
2014-01-23 16:42:00,58.0,52.0,29.90,WNW,300,17.0,-999.0,79,-99.99,,,-99.99,,2014-01-23 22:42:00,
2014-01-23 16:53:00,58.0,52.0,29.90,WNW,300,17.0,-999.0,79,-99.99,,,-99.99,,2014-01-23 22:53:00,
2014-01-23 17:00:00,58.0,50.0,29.93,West,280,24.0,-999.0,74,-99.99,,,-99.99,,2014-01-23 23:00:00,
2014-01-23 17:22:00,58.0,50.0,29.93,West,280,24.0,-999.0,74,-99.99,,,-99.99,,2014-01-23 23:22:00,
2014-01-23 17:32:00,58.0,50.0,29.93,West,280,24.0,-999.0,74,-99.99,,,-99.99,,2014-01-23 23:32:00,
2014-01-23 17:43:00,58.0,50.0,29.93,West,280,24.0,-999.0,74,-99.99,,,-99.99,,2014-01-23 23:43:00,
2014-01-23 17:53:00,58.0,50.0,29.93,West,280,24.0,-999.0,74,-99.99,,,-99.99,,2014-01-23 23:53:00,
2014-01-23 18:00:00,57.0,52.0,29.66,WNW,300,21.0,-999.0,82,-99.99,,,-99.99,,2014-01-24 00:00:00,
2014-01-23 18:42:00,57.0,52.0,29.66,WNW,300,21.0,-999.0,82,-99.99,,,-99.99,,2014-01-24 00:42:00,
2014-01-23 18:52:00,57.0,52.0,29.66,WNW,300,21.0,-999.0,82,-99.99,,,-99.99,,2014-01-24 00:52:00,
2014-01-23 19:00:00,57.0,52.0,29.96,WNW,290,23.0,-999.0,82,-99.99,,,-99.99,,2014-01-24 01:00:00,
2014-01-23 19:42:00,57.0,52.0,29.96,WNW,290,23.0,-999.0,82,-99.99,,,-99.99,,2014-01-24 01:42:00,
2014-01-23 19:52:00,57.0,52.0,29.96,WNW,290,23.0,-999.0,82,-99.99,,,-99.99,,2014-01-24 01:52:00,
2014-01-23 20:00:00,57.0,52.0,29.97,WNW,290,22.0,-999.0,82,-99.99,,,-99.99,,2014-01-24 02:00:00,
2014-01-23 20:42:00,57.0,52.0,29.97,WNW,290,22.0,-999.0,82,-99.99,,,-99.99,,2014-01-24 02:42:00,
2014-01-23 20:52:00,57.0,52.0,29.97,WNW,290,22.0,-999.0,82,-99.99,,,-99.99,,2014-01-24 02:52:00,
2014-01-23 21:00:00,54.0,46.0,29.99,WNW,290,15.0,-999.0,76,-99.99,,,-99.99,,2014-01-24 03:00:00,
2014-01-23 21:53:00,54.0,46.0,29.99,WNW,290,15.0,-999.0,76,-99.99,,,-99.99,,2014-01-24 03:53:00,
2014-01-23 22:00:00,52.0,48.0,29.99,NNE,30,10.0,-999.0,87,-99.99,,,-99.99,,2014-01-24 04:00:00,
2014-01-23 22:53:00,52.0,48.0,29.99,NNE,30,10.0,-999.0,87,-99.99,,,-99.99,,2014-01-24 04:53:00,
2014-01-23 23:00:00,52.0,48.0,30.00,NE,50,10.0,-999.0,87,-99.99,,,-99.99,,2014-01-24 05:00:00,
2014-01-23 23:42:00,52.0,48.0,30.00,NE,50,10.0,-999.0,87,-99.99,,,-99.99,,2014-01-24 05:42:00,
2014-01-23 23:52:00,52.0,48.0,30.00,NE,50,10.0,-999.0,87,-99.99,,,-99.99,,2014-01-24 05:52:00,